sensor_id;sensor_type;location;lat;lon;timestamp;pressure;altitude;pressure_sealevel;temperature;humidity
16834;BME280;8533;48.426;10.868;2023-02-13T00:00:23;98043.60;;;0.38;100.00
16834;BME280;8533;48.426;10.868;2023-02-13T00:02:51;98042.10;;;0.35;100.00
16834;BME280;8533;48.426;10.868;2023-02-13T00:05:19;98048.95;;;0.31;100.00
16834;BME280;8533;48.426;10.868;2023-02-13T00:07:46;98042.98;;;0.30;100.00
16834;BME280;8533;48.426;10.868;2023-02-13T00:10:13;98045.02;;;0.36;100.00
16834;BME280;8533;48.426;10.868;2023-02-13T00:12:41;98048.95;;;0.31;100.00
16834;BME280;8533;48.426;10.868;2023-02-13T00:15:08;98048.13;;;0.30;100.00
16834;BME280;8533;48.426;10.868;2023-02-13T00:17:36;98046.35;;;0.21;100.00
16834;BME280;8533;48.426;10.868;2023-02-13T00:20:04;98042.49;;;0.21;100.00
16834;BME280;8533;48.426;10.868;2023-02-13T00:22:36;98037.47;;;0.20;100.00
16834;BME280;8533;48.426;10.868;2023-02-13T00:25:05;98040.98;;;0.19;100.00
16834;BME280;8533;48.426;10.868;2023-02-13T00:27:32;98043.44;;;0.20;100.00
16834;BME280;8533;48.426;10.868;2023-02-13T00:30:00;98046.89;;;0.15;100.00
16834;BME280;8533;48.426;10.868;2023-02-13T00:32:28;98042.72;;;0.09;100.00
16834;BME280;8533;48.426;10.868;2023-02-13T00:34:56;98049.09;;;0.05;100.00
16834;BME280;8533;48.426;10.868;2023-02-13T00:37:24;98047.23;;;0.01;100.00
16834;BME280;8533;48.426;10.868;2023-02-13T00:39:52;98044.31;;;-0.10;100.00
16834;BME280;8533;48.426;10.868;2023-02-13T00:42:20;98051.97;;;-0.04;100.00
16834;BME280;8533;48.426;10.868;2023-02-13T00:44:49;98050.87;;;-0.11;100.00
16834;BME280;8533;48.426;10.868;2023-02-13T00:47:16;98043.56;;;-0.06;100.00
16834;BME280;8533;48.426;10.868;2023-02-13T00:49:44;98043.09;;;-0.06;100.00
16834;BME280;8533;48.426;10.868;2023-02-13T00:52:12;98049.71;;;-0.13;100.00
16834;BME280;8533;48.426;10.868;2023-02-13T00:54:39;98049.59;;;-0.11;100.00
16834;BME280;8533;48.426;10.868;2023-02-13T00:57:07;98051.22;;;-0.10;100.00
16834;BME280;8533;48.426;10.868;2023-02-13T00:59:34;98047.23;;;0.01;100.00
16834;BME280;8533;48.426;10.868;2023-02-13T01:02:03;98051.16;;;-0.05;100.00
16834;BME280;8533;48.426;10.868;2023-02-13T01:04:30;98046.20;;;-0.12;100.00
16834;BME280;8533;48.426;10.868;2023-02-13T01:06:58;98045.48;;;-0.08;100.00
16834;BME280;8533;48.426;10.868;2023-02-13T01:09:25;98048.89;;;-0.13;100.00
16834;BME280;8533;48.426;10.868;2023-02-13T01:11:52;98044.44;;;-0.11;100.00
16834;BME280;8533;48.426;10.868;2023-02-13T01:14:20;98045.38;;;-0.12;100.00
16834;BME280;8533;48.426;10.868;2023-02-13T01:16:47;98048.83;;;-0.17;100.00
16834;BME280;8533;48.426;10.868;2023-02-13T01:19:15;98042.47;;;-0.13;100.00
16834;BME280;8533;48.426;10.868;2023-02-13T01:21:42;98041.37;;;-0.20;100.00
16834;BME280;8533;48.426;10.868;2023-02-13T01:24:10;98044.75;;;-0.20;100.00
16834;BME280;8533;48.426;10.868;2023-02-13T01:26:37;98049.27;;;-0.27;100.00
16834;BME280;8533;48.426;10.868;2023-02-13T01:29:05;98052.42;;;-0.29;100.00
16834;BME280;8533;48.426;10.868;2023-02-13T01:31:32;98056.97;;;-0.27;100.00
16834;BME280;8533;48.426;10.868;2023-02-13T01:34:00;98053.98;;;-0.32;100.00
16834;BME280;8533;48.426;10.868;2023-02-13T01:36:27;98054.23;;;-0.35;100.00
16834;BME280;8533;48.426;10.868;2023-02-13T01:38:57;98053.20;;;-0.39;100.00
16834;BME280;8533;48.426;10.868;2023-02-13T01:41:26;98053.72;;;-0.45;100.00
16834;BME280;8533;48.426;10.868;2023-02-13T01:43:57;98043.91;;;-0.45;100.00
16834;BME280;8533;48.426;10.868;2023-02-13T01:46:36;98046.30;;;-0.38;100.00
16834;BME280;8533;48.426;10.868;2023-02-13T01:49:04;98040.97;;;-0.41;100.00
16834;BME280;8533;48.426;10.868;2023-02-13T01:51:33;98045.06;;;-0.44;100.00
16834;BME280;8533;48.426;10.868;2023-02-13T01:54:09;98043.19;;;-0.42;100.00
16834;BME280;8533;48.426;10.868;2023-02-13T01:56:50;98040.81;;;-0.39;100.00
16834;BME280;8533;48.426;10.868;2023-02-13T01:59:24;98045.14;;;-0.40;100.00
16834;BME280;8533;48.426;10.868;2023-02-13T02:01:43;98040.15;;;-0.41;100.00
16834;BME280;8533;48.426;10.868;2023-02-13T02:04:19;98039.34;;;-0.42;100.00
16834;BME280;8533;48.426;10.868;2023-02-13T02:06:55;98041.75;;;-0.40;100.00
16834;BME280;8533;48.426;10.868;2023-02-13T02:09:21;98036.84;;;-0.37;100.00
16834;BME280;8533;48.426;10.868;2023-02-13T02:12:12;98035.48;;;-0.42;100.00
16834;BME280;8533;48.426;10.868;2023-02-13T02:14:40;98035.95;;;-0.42;100.00
16834;BME280;8533;48.426;10.868;2023-02-13T02:17:07;98035.33;;;-0.40;100.00
16834;BME280;8533;48.426;10.868;2023-02-13T02:22:18;98032.56;;;-0.43;100.00
16834;BME280;8533;48.426;10.868;2023-02-13T02:25:06;98035.95;;;-0.42;100.00
16834;BME280;8533;48.426;10.868;2023-02-13T02:27:36;98038.39;;;-0.41;100.00
16834;BME280;8533;48.426;10.868;2023-02-13T02:32:54;98036.42;;;-0.43;100.00
16834;BME280;8533;48.426;10.868;2023-02-13T02:40:58;98033.87;;;-0.48;100.00
16834;BME280;8533;48.426;10.868;2023-02-13T02:43:37;98022.75;;;-0.43;100.00
16834;BME280;8533;48.426;10.868;2023-02-13T02:46:21;98033.03;;;-0.43;100.00
16834;BME280;8533;48.426;10.868;2023-02-13T02:49:03;98029.89;;;-0.47;100.00
16834;BME280;8533;48.426;10.868;2023-02-13T02:51:56;98029.89;;;-0.47;100.00
16834;BME280;8533;48.426;10.868;2023-02-13T02:54:31;98033.56;;;-0.49;100.00
16834;BME280;8533;48.426;10.868;2023-02-13T02:57:25;98032.12;;;-0.48;100.00
16834;BME280;8533;48.426;10.868;2023-02-13T02:59:48;98035.37;;;-0.46;100.00
16834;BME280;8533;48.426;10.868;2023-02-13T03:02:24;98044.38;;;-0.46;100.00
16834;BME280;8533;48.426;10.868;2023-02-13T03:05:17;98039.28;;;-0.36;100.00
16834;BME280;8533;48.426;10.868;2023-02-13T03:08:02;98039.76;;;-0.52;100.00
16834;BME280;8533;48.426;10.868;2023-02-13T03:10:33;98039.16;;;-0.50;100.00
16834;BME280;8533;48.426;10.868;2023-02-13T03:13:34;98036.66;;;-0.46;100.00
16834;BME280;8533;48.426;10.868;2023-02-13T03:16:00;98036.20;;;-0.45;100.00
16834;BME280;8533;48.426;10.868;2023-02-13T03:18:54;98038.52;;;-0.42;100.00
16834;BME280;8533;48.426;10.868;2023-02-13T03:21:48;98029.08;;;-0.47;100.00
16834;BME280;8533;48.426;10.868;2023-02-13T03:27:27;98044.64;;;-0.33;100.00
16834;BME280;8533;48.426;10.868;2023-02-13T03:35:42;98047.81;;;-0.35;100.00
16834;BME280;8533;48.426;10.868;2023-02-13T03:38:51;98046.88;;;-0.34;100.00
16834;BME280;8533;48.426;10.868;2023-02-13T03:42:00;98041.73;;;-0.34;100.00
16834;BME280;8533;48.426;10.868;2023-02-13T03:43:54;98047.75;;;-0.30;100.00
16834;BME280;8533;48.426;10.868;2023-02-13T03:46:20;98052.84;;;-0.40;100.00
16834;BME280;8533;48.426;10.868;2023-02-13T03:48:50;98048.88;;;-0.38;100.00
16834;BME280;8533;48.426;10.868;2023-02-13T03:52:22;98048.28;;;-0.36;100.00
16834;BME280;8533;48.426;10.868;2023-02-13T03:54:21;98052.53;;;-0.41;100.00
16834;BME280;8533;48.426;10.868;2023-02-13T03:56:50;98053.20;;;-0.39;100.00
16834;BME280;8533;48.426;10.868;2023-02-13T03:59:36;98053.42;;;-0.36;100.00
16834;BME280;8533;48.426;10.868;2023-02-13T04:02:16;98056.06;;;-0.32;100.00
16834;BME280;8533;48.426;10.868;2023-02-13T04:04:47;98057.56;;;-0.29;100.00
16834;BME280;8533;48.426;10.868;2023-02-13T04:07:16;98057.69;;;-0.31;100.00
16834;BME280;8533;48.426;10.868;2023-02-13T04:10:02;98062.81;;;-0.25;100.00
16834;BME280;8533;48.426;10.868;2023-02-13T04:15:26;98059.89;;;-0.26;100.00
16834;BME280;8533;48.426;10.868;2023-02-13T04:18:01;98063.40;;;-0.27;100.00
16834;BME280;8533;48.426;10.868;2023-02-13T04:20:29;98061.48;;;-0.35;100.00
16834;BME280;8533;48.426;10.868;2023-02-13T04:22:53;98070.00;;;-0.34;100.00
16834;BME280;8533;48.426;10.868;2023-02-13T04:25:20;98067.33;;;-0.39;100.00
16834;BME280;8533;48.426;10.868;2023-02-13T04:27:48;98069.66;;;-0.35;100.00
16834;BME280;8533;48.426;10.868;2023-02-13T04:30:15;98074.33;;;-0.35;100.00
16834;BME280;8533;48.426;10.868;2023-02-13T04:32:43;98074.10;;;-0.37;100.00
16834;BME280;8533;48.426;10.868;2023-02-13T04:35:10;98073.63;;;-0.37;100.00
16834;BME280;8533;48.426;10.868;2023-02-13T04:37:39;98068.59;;;-0.33;100.00
16834;BME280;8533;48.426;10.868;2023-02-13T04:40:07;98074.40;;;-0.31;100.00
16834;BME280;8533;48.426;10.868;2023-02-13T04:42:35;98076.59;;;-0.26;100.00
16834;BME280;8533;48.426;10.868;2023-02-13T04:45:03;98073.45;;;-0.30;100.00
16834;BME280;8533;48.426;10.868;2023-02-13T04:47:30;98070.20;;;-0.32;100.00
16834;BME280;8533;48.426;10.868;2023-02-13T04:49:58;98076.62;;;-0.32;100.00
16834;BME280;8533;48.426;10.868;2023-02-13T04:52:25;98072.30;;;-0.31;100.00
16834;BME280;8533;48.426;10.868;2023-02-13T04:54:52;98079.17;;;-0.26;100.00
16834;BME280;8533;48.426;10.868;2023-02-13T04:57:20;98075.91;;;-0.28;100.00
16834;BME280;8533;48.426;10.868;2023-02-13T04:59:47;98074.84;;;-0.26;100.00
16834;BME280;8533;48.426;10.868;2023-02-13T05:02:15;98078.58;;;-0.24;100.00
16834;BME280;8533;48.426;10.868;2023-02-13T05:04:42;98075.19;;;-0.25;100.00
16834;BME280;8533;48.426;10.868;2023-02-13T05:07:09;98074.97;;;-0.27;100.00
16834;BME280;8533;48.426;10.868;2023-02-13T05:09:37;98077.77;;;-0.25;100.00
16834;BME280;8533;48.426;10.868;2023-02-13T05:12:04;98074.22;;;-0.24;100.00
16834;BME280;8533;48.426;10.868;2023-02-13T05:14:32;98074.91;;;-0.22;100.00
16834;BME280;8533;48.426;10.868;2023-02-13T05:16:59;98078.05;;;-0.18;100.00
16834;BME280;8533;48.426;10.868;2023-02-13T05:19:27;98075.73;;;-0.21;100.00
16834;BME280;8533;48.426;10.868;2023-02-13T05:21:54;98075.61;;;-0.20;100.00
16834;BME280;8533;48.426;10.868;2023-02-13T05:24:39;98070.94;;;-0.20;100.00
16834;BME280;8533;48.426;10.868;2023-02-13T05:27:07;98071.88;;;-0.21;100.00
16834;BME280;8533;48.426;10.868;2023-02-13T05:29:34;98068.14;;;-0.23;100.00
16834;BME280;8533;48.426;10.868;2023-02-13T05:32:02;98076.48;;;-0.25;100.00
16834;BME280;8533;48.426;10.868;2023-02-13T05:34:29;98072.22;;;-0.20;100.00
16834;BME280;8533;48.426;10.868;2023-02-13T05:36:57;98078.08;;;-0.24;100.00
16834;BME280;8533;48.426;10.868;2023-02-13T05:39:24;98075.78;;;-0.27;100.00
16834;BME280;8533;48.426;10.868;2023-02-13T05:41:52;98074.97;;;-0.27;100.00
16834;BME280;8533;48.426;10.868;2023-02-13T05:44:19;98077.95;;;-0.22;100.00
16834;BME280;8533;48.426;10.868;2023-02-13T05:46:46;98076.67;;;-0.22;100.00
16834;BME280;8533;48.426;10.868;2023-02-13T05:49:14;98076.95;;;-0.25;100.00
16834;BME280;8533;48.426;10.868;2023-02-13T05:51:42;98078.48;;;-0.28;100.00
16834;BME280;8533;48.426;10.868;2023-02-13T05:54:11;98078.95;;;-0.29;100.00
16834;BME280;8533;48.426;10.868;2023-02-13T05:56:39;98077.78;;;-0.30;100.00
16834;BME280;8533;48.426;10.868;2023-02-13T05:59:06;98076.16;;;-0.31;100.00
16834;BME280;8533;48.426;10.868;2023-02-13T06:01:34;98084.21;;;-0.30;100.00
16834;BME280;8533;48.426;10.868;2023-02-13T06:04:01;98079.69;;;-0.32;100.00
16834;BME280;8533;48.426;10.868;2023-02-13T06:06:29;98078.95;;;-0.29;100.00
16834;BME280;8533;48.426;10.868;2023-02-13T06:08:56;98080.83;;;-0.31;100.00
16834;BME280;8533;48.426;10.868;2023-02-13T06:11:24;98083.67;;;-0.34;100.00
16834;BME280;8533;48.426;10.868;2023-02-13T06:13:52;98080.28;;;-0.34;100.00
16834;BME280;8533;48.426;10.868;2023-02-13T06:16:20;98084.73;;;-0.36;100.00
16834;BME280;8533;48.426;10.868;2023-02-13T06:18:47;98081.92;;;-0.33;100.00
16834;BME280;8533;48.426;10.868;2023-02-13T06:21:15;98087.18;;;-0.35;100.00
16834;BME280;8533;48.426;10.868;2023-02-13T06:23:42;98088.06;;;-0.30;100.00
16834;BME280;8533;48.426;10.868;2023-02-13T06:26:10;98088.19;;;-0.32;100.00
16834;BME280;8533;48.426;10.868;2023-02-13T06:28:37;98090.73;;;-0.26;100.00
16834;BME280;8533;48.426;10.868;2023-02-13T06:31:04;98092.22;;;-0.24;100.00
16834;BME280;8533;48.426;10.868;2023-02-13T06:33:32;98092.54;;;-0.17;100.00
16834;BME280;8533;48.426;10.868;2023-02-13T06:35:59;98095.13;;;-0.23;100.00
16834;BME280;8533;48.426;10.868;2023-02-13T06:38:27;98092.91;;;-0.22;100.00
16834;BME280;8533;48.426;10.868;2023-02-13T06:40:58;98096.64;;;-0.20;100.00
16834;BME280;8533;48.426;10.868;2023-02-13T06:43:26;98095.36;;;-0.20;100.00
16834;BME280;8533;48.426;10.868;2023-02-13T06:45:54;98098.16;;;-0.18;100.00
16834;BME280;8533;48.426;10.868;2023-02-13T06:48:21;98105.74;;;-0.16;100.00
16834;BME280;8533;48.426;10.868;2023-02-13T06:50:49;98101.78;;;-0.20;100.00
16834;BME280;8533;48.426;10.868;2023-02-13T06:53:18;98109.84;;;-0.19;100.00
16834;BME280;8533;48.426;10.868;2023-02-13T06:55:51;98109.84;;;-0.19;100.00
16834;BME280;8533;48.426;10.868;2023-02-13T06:58:20;98115.53;;;-0.16;100.00
16834;BME280;8533;48.426;10.868;2023-02-13T07:00:49;98116.34;;;-0.15;100.00
16834;BME280;8533;48.426;10.868;2023-02-13T07:03:17;98121.48;;;-0.15;100.00
16834;BME280;8533;48.426;10.868;2023-02-13T07:05:45;98118.84;;;-0.19;100.00
16834;BME280;8533;48.426;10.868;2023-02-13T07:08:12;98120.13;;;-0.19;100.00
16834;BME280;8533;48.426;10.868;2023-02-13T07:10:41;98118.84;;;-0.19;100.00
16834;BME280;8533;48.426;10.868;2023-02-13T07:13:09;98125.15;;;-0.18;100.00
16834;BME280;8533;48.426;10.868;2023-02-13T07:15:37;98122.92;;;-0.17;100.00
16834;BME280;8533;48.426;10.868;2023-02-13T07:18:05;98126.20;;;-0.05;100.00
16834;BME280;8533;48.426;10.868;2023-02-13T07:20:33;98126.27;;;-0.11;100.00
16834;BME280;8533;48.426;10.868;2023-02-13T07:23:02;98128.02;;;-0.11;100.00
16834;BME280;8533;48.426;10.868;2023-02-13T07:25:30;98137.44;;;-0.06;100.00
16834;BME280;8533;48.426;10.868;2023-02-13T07:28:05;98134.56;;;-0.13;100.00
16834;BME280;8533;48.426;10.868;2023-02-13T07:30:32;98139.83;;;-0.14;100.00
16834;BME280;8533;48.426;10.868;2023-02-13T07:33:01;98140.75;;;-0.10;100.00
16834;BME280;8533;48.426;10.868;2023-02-13T07:35:29;98135.04;;;-0.13;100.00
16834;BME280;8533;48.426;10.868;2023-02-13T07:37:57;98141.59;;;-0.15;100.00
16834;BME280;8533;48.426;10.868;2023-02-13T07:40:25;98143.09;;;-0.12;100.00
16834;BME280;8533;48.426;10.868;2023-02-13T07:42:53;98143.97;;;-0.17;100.00
16834;BME280;8533;48.426;10.868;2023-02-13T07:45:21;98146.73;;;-0.15;100.00
16834;BME280;8533;48.426;10.868;2023-02-13T07:47:48;98153.31;;;-0.16;100.00
16834;BME280;8533;48.426;10.868;2023-02-13T07:50:16;98147.02;;;-0.23;100.00
16834;BME280;8533;48.426;10.868;2023-02-13T07:52:43;98152.98;;;-0.23;100.00
16834;BME280;8533;48.426;10.868;2023-02-13T07:55:11;98149.58;;;-0.18;100.00
16834;BME280;8533;48.426;10.868;2023-02-13T07:57:38;98153.09;;;-0.19;100.00
16834;BME280;8533;48.426;10.868;2023-02-13T08:00:07;98146.66;;;-0.19;100.00
16834;BME280;8533;48.426;10.868;2023-02-13T08:02:34;98149.05;;;-0.12;100.00
16834;BME280;8533;48.426;10.868;2023-02-13T08:05:02;98150.77;;;-0.07;100.00
16834;BME280;8533;48.426;10.868;2023-02-13T08:07:29;98151.97;;;-0.11;100.00
16834;BME280;8533;48.426;10.868;2023-02-13T08:09:56;98155.36;;;-0.10;100.00
16834;BME280;8533;48.426;10.868;2023-02-13T08:12:42;98153.61;;;-0.10;100.00
16834;BME280;8533;48.426;10.868;2023-02-13T08:15:12;98155.61;;;-0.13;100.00
16834;BME280;8533;48.426;10.868;2023-02-13T08:17:40;98158.45;;;-0.16;100.00
16834;BME280;8533;48.426;10.868;2023-02-13T08:20:08;98150.74;;;-0.16;100.00
16834;BME280;8533;48.426;10.868;2023-02-13T08:22:36;98159.52;;;-0.04;100.00
16834;BME280;8533;48.426;10.868;2023-02-13T08:25:04;98157.23;;;0.03;100.00
16834;BME280;8533;48.426;10.868;2023-02-13T08:27:32;98159.69;;;-0.11;100.00
16834;BME280;8533;48.426;10.868;2023-02-13T08:30:00;98157.77;;;-0.03;100.00
16834;BME280;8533;48.426;10.868;2023-02-13T08:32:30;98160.75;;;0.02;100.00
16834;BME280;8533;48.426;10.868;2023-02-13T08:34:57;98158.18;;;0.02;100.00
16834;BME280;8533;48.426;10.868;2023-02-13T08:37:25;98157.88;;;-0.05;100.00
16834;BME280;8533;48.426;10.868;2023-02-13T08:39:52;98151.41;;;0.01;100.00
16834;BME280;8533;48.426;10.868;2023-02-13T08:42:20;98156.23;;;0.00;100.00
16834;BME280;8533;48.426;10.868;2023-02-13T08:44:48;98161.61;;;0.12;100.00
16834;BME280;8533;48.426;10.868;2023-02-13T08:47:15;98161.05;;;0.09;100.00
16834;BME280;8533;48.426;10.868;2023-02-13T08:49:43;98163.77;;;0.07;100.00
16834;BME280;8533;48.426;10.868;2023-02-13T08:52:10;98158.34;;;0.10;100.00
16834;BME280;8533;48.426;10.868;2023-02-13T08:54:38;98158.44;;;0.29;100.00
16834;BME280;8533;48.426;10.868;2023-02-13T08:57:05;98162.64;;;0.30;100.00
16834;BME280;8533;48.426;10.868;2023-02-13T09:02:09;98167.01;;;0.40;100.00
16834;BME280;8533;48.426;10.868;2023-02-13T09:04:40;98170.42;;;0.34;100.00
16834;BME280;8533;48.426;10.868;2023-02-13T09:07:07;98172.28;;;0.38;100.00
16834;BME280;8533;48.426;10.868;2023-02-13T09:09:35;98171.05;;;0.42;100.00
16834;BME280;8533;48.426;10.868;2023-02-13T09:12:02;98167.56;;;0.28;100.00
16834;BME280;8533;48.426;10.868;2023-02-13T09:14:30;98171.59;;;0.36;100.00
16834;BME280;8533;48.426;10.868;2023-02-13T09:16:57;98169.09;;;0.25;100.00
16834;BME280;8533;48.426;10.868;2023-02-13T09:19:24;98163.02;;;0.26;100.00
16834;BME280;8533;48.426;10.868;2023-02-13T09:21:52;98161.23;;;0.42;100.00
16834;BME280;8533;48.426;10.868;2023-02-13T09:24:19;98158.56;;;0.53;100.00
16834;BME280;8533;48.426;10.868;2023-02-13T09:26:47;98158.94;;;0.63;100.00
16834;BME280;8533;48.426;10.868;2023-02-13T09:29:14;98159.06;;;0.62;100.00
16834;BME280;8533;48.426;10.868;2023-02-13T09:31:42;98159.27;;;0.74;100.00
16834;BME280;8533;48.426;10.868;2023-02-13T09:34:09;98155.91;;;0.83;100.00
16834;BME280;8533;48.426;10.868;2023-02-13T09:36:36;98155.70;;;0.90;100.00
16834;BME280;8533;48.426;10.868;2023-02-13T09:39:04;98152.73;;;0.85;100.00
16834;BME280;8533;48.426;10.868;2023-02-13T09:41:34;98163.79;;;1.01;100.00
16834;BME280;8533;48.426;10.868;2023-02-13T09:44:11;98157.68;;;0.92;100.00
16834;BME280;8533;48.426;10.868;2023-02-13T09:46:38;98160.12;;;0.94;100.00
16834;BME280;8533;48.426;10.868;2023-02-13T09:49:10;98161.89;;;0.93;100.00
16834;BME280;8533;48.426;10.868;2023-02-13T09:51:36;98160.25;;;0.92;100.00
16834;BME280;8533;48.426;10.868;2023-02-13T09:54:05;98162.23;;;0.94;100.00
16834;BME280;8533;48.426;10.868;2023-02-13T10:02:49;98169.03;;;1.05;100.00
16834;BME280;8533;48.426;10.868;2023-02-13T10:11:12;98171.59;;;0.95;100.00
16834;BME280;8533;48.426;10.868;2023-02-13T10:13:46;98167.52;;;0.93;100.00
16834;BME280;8533;48.426;10.868;2023-02-13T10:16:15;98169.59;;;0.84;100.00
16834;BME280;8533;48.426;10.868;2023-02-13T10:19:03;98172.05;;;0.85;100.00
16834;BME280;8533;48.426;10.868;2023-02-13T10:21:41;98171.39;;;1.02;100.00
16834;BME280;8533;48.426;10.868;2023-02-13T10:24:13;98159.23;;;0.99;100.00
16834;BME280;8533;48.426;10.868;2023-02-13T10:26:42;98173.42;;;1.08;100.00
16834;BME280;8533;48.426;10.868;2023-02-13T10:29:22;98169.36;;;0.96;100.00
16834;BME280;8533;48.426;10.868;2023-02-13T10:32:11;98173.75;;;0.81;100.00
16834;BME280;8533;48.426;10.868;2023-02-13T10:34:41;98174.02;;;0.87;100.00
16834;BME280;8533;48.426;10.868;2023-02-13T10:37:13;98174.47;;;0.77;100.00
16834;BME280;8533;48.426;10.868;2023-02-13T10:39:42;98167.48;;;0.64;100.00
16834;BME280;8533;48.426;10.868;2023-02-13T10:47:34;98164.06;;;1.07;100.00
16834;BME280;8533;48.426;10.868;2023-02-13T10:58:37;98155.47;;;1.12;100.00
16834;BME280;8533;48.426;10.868;2023-02-13T11:03:33;98146.16;;;1.15;100.00
16834;BME280;8533;48.426;10.868;2023-02-13T11:06:04;98152.81;;;1.28;100.00
16834;BME280;8533;48.426;10.868;2023-02-13T11:08:45;98144.14;;;1.29;100.00
16834;BME280;8533;48.426;10.868;2023-02-13T11:11:28;98140.41;;;1.18;100.00
16834;BME280;8533;48.426;10.868;2023-02-13T11:14:11;98137.01;;;1.27;100.00
16834;BME280;8533;48.426;10.868;2023-02-13T11:16:53;98128.64;;;1.38;100.00
16834;BME280;8533;48.426;10.868;2023-02-13T11:19:33;98133.27;;;1.35;100.00
16834;BME280;8533;48.426;10.868;2023-02-13T11:22:02;98130.30;;;1.30;100.00
16834;BME280;8533;48.426;10.868;2023-02-13T11:24:30;98126.49;;;1.14;100.00
16834;BME280;8533;48.426;10.868;2023-02-13T11:27:00;98132.41;;;1.21;100.00
16834;BME280;8533;48.426;10.868;2023-02-13T11:29:32;98127.65;;;1.16;100.00
16834;BME280;8533;48.426;10.868;2023-02-13T11:32:16;98126.23;;;1.08;100.00
16834;BME280;8533;48.426;10.868;2023-02-13T11:34:37;98135.16;;;1.33;100.00
16834;BME280;8533;48.426;10.868;2023-02-13T11:37:16;98127.98;;;1.36;100.00
16834;BME280;8533;48.426;10.868;2023-02-13T11:39:44;98128.38;;;1.32;100.00
16834;BME280;8533;48.426;10.868;2023-02-13T11:42:23;98123.09;;;1.33;100.00
16834;BME280;8533;48.426;10.868;2023-02-13T11:44:49;98121.70;;;1.48;100.00
16834;BME280;8533;48.426;10.868;2023-02-13T11:47:38;98123.25;;;1.55;100.00
16834;BME280;8533;48.426;10.868;2023-02-13T11:50:06;98126.63;;;1.65;100.00
16834;BME280;8533;48.426;10.868;2023-02-13T11:52:35;98126.27;;;1.74;100.00
16834;BME280;8533;48.426;10.868;2023-02-13T11:55:26;98129.70;;;1.55;100.00
16834;BME280;8533;48.426;10.868;2023-02-13T11:58:02;98124.94;;;1.37;100.00
16834;BME280;8533;48.426;10.868;2023-02-13T12:00:34;98131.20;;;1.48;100.00
16834;BME280;8533;48.426;10.868;2023-02-13T12:03:08;98125.83;;;1.55;100.00
16834;BME280;8533;48.426;10.868;2023-02-13T12:05:31;98117.60;;;1.65;100.00
16834;BME280;8533;48.426;10.868;2023-02-13T12:08:00;98119.78;;;1.70;100.00
16834;BME280;8533;48.426;10.868;2023-02-13T12:10:32;98116.33;;;1.79;100.00
16834;BME280;8533;48.426;10.868;2023-02-13T12:13:26;98115.70;;;1.67;100.00
16834;BME280;8533;48.426;10.868;2023-02-13T12:15:59;98117.03;;;1.71;100.00
16834;BME280;8533;48.426;10.868;2023-02-13T12:18:39;98107.76;;;1.65;100.00
16834;BME280;8533;48.426;10.868;2023-02-13T12:21:32;98110.75;;;1.70;100.00
16834;BME280;8533;48.426;10.868;2023-02-13T12:24:17;98115.38;;;1.80;100.00
16834;BME280;8533;48.426;10.868;2023-02-13T12:26:52;98118.33;;;1.71;100.00
16834;BME280;8533;48.426;10.868;2023-02-13T12:30:05;98117.45;;;1.76;100.00
16834;BME280;8533;48.426;10.868;2023-02-13T12:48:44;98097.31;;;1.66;100.00
16834;BME280;8533;48.426;10.868;2023-02-13T13:02:46;98084.73;;;1.53;100.00
16834;BME280;8533;48.426;10.868;2023-02-13T13:08:20;98079.16;;;1.72;100.00
16834;BME280;8533;48.426;10.868;2023-02-13T13:11:10;98085.24;;;1.80;100.00
16834;BME280;8533;48.426;10.868;2023-02-13T13:13:47;98077.80;;;1.77;100.00
16834;BME280;8533;48.426;10.868;2023-02-13T13:19:12;98077.29;;;1.64;100.00
16834;BME280;8533;48.426;10.868;2023-02-13T13:21:53;98077.29;;;1.64;100.00
16834;BME280;8533;48.426;10.868;2023-02-13T13:27:25;98076.93;;;1.49;100.00
16834;BME280;8533;48.426;10.868;2023-02-13T13:29:56;98070.80;;;1.37;100.00
16834;BME280;8533;48.426;10.868;2023-02-13T13:32:21;98080.78;;;1.26;100.00
16834;BME280;8533;48.426;10.868;2023-02-13T13:34:48;98084.09;;;1.23;100.00
16834;BME280;8533;48.426;10.868;2023-02-13T13:40:29;98090.62;;;1.27;100.00
16834;BME280;8533;48.426;10.868;2023-02-13T13:43:00;98093.53;;;1.37;100.00
16834;BME280;8533;48.426;10.868;2023-02-13T13:45:35;98084.94;;;1.46;100.00
16834;BME280;8533;48.426;10.868;2023-02-13T13:48:18;98085.05;;;1.54;100.00
16834;BME280;8533;48.426;10.868;2023-02-13T13:50:45;98085.61;;;1.48;100.00
16834;BME280;8533;48.426;10.868;2023-02-13T13:53:20;98083.28;;;1.55;100.00
16834;BME280;8533;48.426;10.868;2023-02-13T13:58:35;98087.60;;;1.41;100.00
16834;BME280;8533;48.426;10.868;2023-02-13T14:01:17;98086.61;;;1.38;100.00
16834;BME280;8533;48.426;10.868;2023-02-13T14:03:50;98090.48;;;1.38;100.00
16834;BME280;8533;48.426;10.868;2023-02-13T14:06:18;98089.61;;;1.47;100.00
16834;BME280;8533;48.426;10.868;2023-02-13T14:13:56;98091.47;;;1.41;100.00
16834;BME280;8533;48.426;10.868;2023-02-13T14:16:42;98094.34;;;1.38;100.00
16834;BME280;8533;48.426;10.868;2023-02-13T14:19:29;98090.09;;;1.46;100.00
16834;BME280;8533;48.426;10.868;2023-02-13T14:25:02;98098.75;;;1.55;100.00
16834;BME280;8533;48.426;10.868;2023-02-13T14:27:36;98091.84;;;1.56;100.00
16834;BME280;8533;48.426;10.868;2023-02-13T14:30:06;98092.19;;;1.47;100.00
16834;BME280;8533;48.426;10.868;2023-02-13T14:32:36;98092.71;;;1.37;100.00
16834;BME280;8533;48.426;10.868;2023-02-13T14:35:23;98096.41;;;1.38;100.00
16834;BME280;8533;48.426;10.868;2023-02-13T14:37:53;98088.77;;;1.33;100.00
16834;BME280;8533;48.426;10.868;2023-02-13T14:40:29;98086.92;;;1.39;100.00
16834;BME280;8533;48.426;10.868;2023-02-13T14:48:54;98088.15;;;1.44;100.00
16834;BME280;8533;48.426;10.868;2023-02-13T14:51:33;98081.61;;;1.50;100.00
16834;BME280;8533;48.426;10.868;2023-02-13T14:54:21;98078.47;;;1.56;100.00
16834;BME280;8533;48.426;10.868;2023-02-13T14:56:28;98079.42;;;1.55;100.00
16834;BME280;8533;48.426;10.868;2023-02-13T14:59:15;98074.33;;;1.59;100.00
16834;BME280;8533;48.426;10.868;2023-02-13T15:02:01;98078.58;;;1.41;100.00
16834;BME280;8533;48.426;10.868;2023-02-13T15:04:42;98075.91;;;1.46;100.00
16834;BME280;8533;48.426;10.868;2023-02-13T15:07:20;98069.44;;;1.33;100.00